sensor_id;sensor_type;location;lat;lon;timestamp;temperature;humidity
14475;DHT22;7323;50.848;4.334;2024-01-16T00:01:06;2.80;5.10
14475;DHT22;7323;50.848;4.334;2024-01-16T00:03:32;2.60;5.10
14475;DHT22;7323;50.848;4.334;2024-01-16T00:05:58;2.70;8.10
14475;DHT22;7323;50.848;4.334;2024-01-16T00:08:23;2.60;7.30
14475;DHT22;7323;50.848;4.334;2024-01-16T00:10:50;2.60;6.90
14475;DHT22;7323;50.848;4.334;2024-01-16T00:13:17;2.70;3.40
14475;DHT22;7323;50.848;4.334;2024-01-16T00:15:43;2.60;3.20
14475;DHT22;7323;50.848;4.334;2024-01-16T00:18:09;2.60;3.70
14475;DHT22;7323;50.848;4.334;2024-01-16T00:20:34;2.60;1.00
14475;DHT22;7323;50.848;4.334;2024-01-16T00:23:01;2.50;1.00
14475;DHT22;7323;50.848;4.334;2024-01-16T00:25:26;2.30;1.40
14475;DHT22;7323;50.848;4.334;2024-01-16T00:27:52;2.40;5.00
14475;DHT22;7323;50.848;4.334;2024-01-16T00:30:18;2.20;7.50
14475;DHT22;7323;50.848;4.334;2024-01-16T00:32:44;2.20;10.70
14475;DHT22;7323;50.848;4.334;2024-01-16T00:35:09;2.20;12.80
14475;DHT22;7323;50.848;4.334;2024-01-16T00:37:38;2.10;12.80
14475;DHT22;7323;50.848;4.334;2024-01-16T00:40:05;2.20;10.50
14475;DHT22;7323;50.848;4.334;2024-01-16T00:42:34;2.10;10.30
14475;DHT22;7323;50.848;4.334;2024-01-16T00:45:00;2.20;9.90
14475;DHT22;7323;50.848;4.334;2024-01-16T00:47:27;2.10;9.50
14475;DHT22;7323;50.848;4.334;2024-01-16T00:49:52;2.10;9.20
14475;DHT22;7323;50.848;4.334;2024-01-16T00:52:18;2.10;9.40
14475;DHT22;7323;50.848;4.334;2024-01-16T00:54:44;2.10;6.40
14475;DHT22;7323;50.848;4.334;2024-01-16T00:57:10;2.00;5.60
14475;DHT22;7323;50.848;4.334;2024-01-16T00:59:36;2.10;3.30
14475;DHT22;7323;50.848;4.334;2024-01-16T01:02:02;2.20;1.00
14475;DHT22;7323;50.848;4.334;2024-01-16T01:04:29;2.10;1.00
14475;DHT22;7323;50.848;4.334;2024-01-16T01:06:55;2.00;1.00
14475;DHT22;7323;50.848;4.334;2024-01-16T01:09:20;1.90;2.60
14475;DHT22;7323;50.848;4.334;2024-01-16T01:11:46;1.90;3.90
14475;DHT22;7323;50.848;4.334;2024-01-16T01:14:12;2.10;1.00
14475;DHT22;7323;50.848;4.334;2024-01-16T01:16:38;2.10;1.00
14475;DHT22;7323;50.848;4.334;2024-01-16T01:19:03;2.20;1.00
14475;DHT22;7323;50.848;4.334;2024-01-16T01:21:29;2.00;1.00
14475;DHT22;7323;50.848;4.334;2024-01-16T01:23:55;1.80;5.70
14475;DHT22;7323;50.848;4.334;2024-01-16T01:26:20;1.70;6.90
14475;DHT22;7323;50.848;4.334;2024-01-16T01:28:46;1.80;12.20
14475;DHT22;7323;50.848;4.334;2024-01-16T01:31:12;1.70;10.70
14475;DHT22;7323;50.848;4.334;2024-01-16T01:33:39;1.80;10.10
14475;DHT22;7323;50.848;4.334;2024-01-16T01:36:05;1.80;5.90
14475;DHT22;7323;50.848;4.334;2024-01-16T01:38:31;1.70;10.70
14475;DHT22;7323;50.848;4.334;2024-01-16T01:40:57;1.70;7.90
14475;DHT22;7323;50.848;4.334;2024-01-16T01:43:25;1.60;8.80
14475;DHT22;7323;50.848;4.334;2024-01-16T01:46:15;1.60;9.20
14475;DHT22;7323;50.848;4.334;2024-01-16T01:48:42;1.60;9.50
14475;DHT22;7323;50.848;4.334;2024-01-16T01:51:13;1.70;11.60
14475;DHT22;7323;50.848;4.334;2024-01-16T01:53:40;1.80;11.70
14475;DHT22;7323;50.848;4.334;2024-01-16T01:56:13;1.80;4.10
14475;DHT22;7323;50.848;4.334;2024-01-16T01:58:41;1.70;4.00
14475;DHT22;7323;50.848;4.334;2024-01-16T02:01:08;1.70;6.10
14475;DHT22;7323;50.848;4.334;2024-01-16T02:03:55;1.50;6.70
14475;DHT22;7323;50.848;4.334;2024-01-16T02:06:22;1.50;10.40
14475;DHT22;7323;50.848;4.334;2024-01-16T02:08:47;1.70;6.90
14475;DHT22;7323;50.848;4.334;2024-01-16T02:11:13;1.60;7.30
14475;DHT22;7323;50.848;4.334;2024-01-16T02:13:39;1.60;9.50
14475;DHT22;7323;50.848;4.334;2024-01-16T02:16:05;1.50;10.10
14475;DHT22;7323;50.848;4.334;2024-01-16T02:18:31;1.50;11.80
14475;DHT22;7323;50.848;4.334;2024-01-16T02:21:00;1.40;14.40
14475;DHT22;7323;50.848;4.334;2024-01-16T02:23:28;1.40;15.20
14475;DHT22;7323;50.848;4.334;2024-01-16T02:25:54;1.30;15.90
14475;DHT22;7323;50.848;4.334;2024-01-16T02:28:20;1.50;16.10
14475;DHT22;7323;50.848;4.334;2024-01-16T02:30:46;1.30;15.80
14475;DHT22;7323;50.848;4.334;2024-01-16T02:33:11;1.40;17.50
14475;DHT22;7323;50.848;4.334;2024-01-16T02:35:37;1.30;18.30
14475;DHT22;7323;50.848;4.334;2024-01-16T02:38:03;1.30;19.20
14475;DHT22;7323;50.848;4.334;2024-01-16T02:40:29;1.20;17.10
14475;DHT22;7323;50.848;4.334;2024-01-16T02:42:55;1.30;17.90
14475;DHT22;7323;50.848;4.334;2024-01-16T02:45:21;1.30;15.70
14475;DHT22;7323;50.848;4.334;2024-01-16T02:47:47;1.20;18.50
14475;DHT22;7323;50.848;4.334;2024-01-16T02:50:12;1.10;15.50
14475;DHT22;7323;50.848;4.334;2024-01-16T02:52:38;1.00;19.00
14475;DHT22;7323;50.848;4.334;2024-01-16T02:55:05;1.10;22.50
14475;DHT22;7323;50.848;4.334;2024-01-16T02:57:31;1.10;21.50
14475;DHT22;7323;50.848;4.334;2024-01-16T02:59:56;1.20;22.20
14475;DHT22;7323;50.848;4.334;2024-01-16T03:02:23;1.20;19.50
14475;DHT22;7323;50.848;4.334;2024-01-16T03:04:49;1.20;18.60
14475;DHT22;7323;50.848;4.334;2024-01-16T03:07:15;1.20;18.40
14475;DHT22;7323;50.848;4.334;2024-01-16T03:09:41;1.20;19.50
14475;DHT22;7323;50.848;4.334;2024-01-16T03:12:07;1.20;17.70
14475;DHT22;7323;50.848;4.334;2024-01-16T03:14:32;1.10;16.30
14475;DHT22;7323;50.848;4.334;2024-01-16T03:17:03;1.10;18.80
14475;DHT22;7323;50.848;4.334;2024-01-16T03:19:28;1.20;19.30
14475;DHT22;7323;50.848;4.334;2024-01-16T03:21:54;1.10;16.00
14475;DHT22;7323;50.848;4.334;2024-01-16T03:24:20;1.10;16.30
14475;DHT22;7323;50.848;4.334;2024-01-16T03:26:46;1.20;16.10
14475;DHT22;7323;50.848;4.334;2024-01-16T03:29:11;1.20;13.50
14475;DHT22;7323;50.848;4.334;2024-01-16T03:31:37;1.20;11.60
14475;DHT22;7323;50.848;4.334;2024-01-16T03:34:03;1.20;8.40
14475;DHT22;7323;50.848;4.334;2024-01-16T03:36:28;1.60;8.00
14475;DHT22;7323;50.848;4.334;2024-01-16T03:38:54;1.40;1.80
14475;DHT22;7323;50.848;4.334;2024-01-16T03:41:20;1.20;3.00
14475;DHT22;7323;50.848;4.334;2024-01-16T03:43:45;1.20;5.80
14475;DHT22;7323;50.848;4.334;2024-01-16T03:46:11;1.20;5.10
14475;DHT22;7323;50.848;4.334;2024-01-16T03:48:37;1.30;9.30
14475;DHT22;7323;50.848;4.334;2024-01-16T03:51:03;1.20;5.30
14475;DHT22;7323;50.848;4.334;2024-01-16T03:53:28;1.20;9.30
14475;DHT22;7323;50.848;4.334;2024-01-16T03:55:54;1.30;8.80
14475;DHT22;7323;50.848;4.334;2024-01-16T03:58:20;1.20;6.80
14475;DHT22;7323;50.848;4.334;2024-01-16T04:00:46;1.30;7.50
14475;DHT22;7323;50.848;4.334;2024-01-16T04:03:12;1.20;5.80
14475;DHT22;7323;50.848;4.334;2024-01-16T04:05:38;1.20;6.40
14475;DHT22;7323;50.848;4.334;2024-01-16T04:08:04;1.00;8.30
14475;DHT22;7323;50.848;4.334;2024-01-16T04:10:31;1.10;10.80
14475;DHT22;7323;50.848;4.334;2024-01-16T04:13:00;1.30;9.10
14475;DHT22;7323;50.848;4.334;2024-01-16T04:15:26;1.00;8.60
14475;DHT22;7323;50.848;4.334;2024-01-16T04:17:51;0.90;11.80
14475;DHT22;7323;50.848;4.334;2024-01-16T04:20:18;1.00;15.30
14475;DHT22;7323;50.848;4.334;2024-01-16T04:22:45;1.00;12.70
14475;DHT22;7323;50.848;4.334;2024-01-16T04:25:11;1.10;11.00
14475;DHT22;7323;50.848;4.334;2024-01-16T04:27:36;1.10;12.40
14475;DHT22;7323;50.848;4.334;2024-01-16T04:30:02;0.80;12.40
14475;DHT22;7323;50.848;4.334;2024-01-16T04:32:28;0.90;14.50
14475;DHT22;7323;50.848;4.334;2024-01-16T04:34:54;0.90;13.00
14475;DHT22;7323;50.848;4.334;2024-01-16T04:37:19;0.90;12.40
14475;DHT22;7323;50.848;4.334;2024-01-16T04:39:45;0.90;12.90
14475;DHT22;7323;50.848;4.334;2024-01-16T04:42:10;1.00;10.30
14475;DHT22;7323;50.848;4.334;2024-01-16T04:44:37;1.00;7.80
14475;DHT22;7323;50.848;4.334;2024-01-16T04:47:02;1.00;6.30
14475;DHT22;7323;50.848;4.334;2024-01-16T04:49:28;1.00;4.90
14475;DHT22;7323;50.848;4.334;2024-01-16T04:51:54;1.10;6.90
14475;DHT22;7323;50.848;4.334;2024-01-16T04:54:19;1.10;5.10
14475;DHT22;7323;50.848;4.334;2024-01-16T04:56:45;1.20;1.40
14475;DHT22;7323;50.848;4.334;2024-01-16T04:59:11;1.20;1.00
14475;DHT22;7323;50.848;4.334;2024-01-16T05:01:36;1.10;1.00
14475;DHT22;7323;50.848;4.334;2024-01-16T05:04:03;1.10;1.00
14475;DHT22;7323;50.848;4.334;2024-01-16T05:06:29;1.10;1.00
14475;DHT22;7323;50.848;4.334;2024-01-16T05:08:55;1.00;1.00
14475;DHT22;7323;50.848;4.334;2024-01-16T05:11:21;0.90;1.00
14475;DHT22;7323;50.848;4.334;2024-01-16T05:13:46;0.80;2.70
14475;DHT22;7323;50.848;4.334;2024-01-16T05:16:13;1.00;4.00
14475;DHT22;7323;50.848;4.334;2024-01-16T05:18:41;0.90;4.40
14475;DHT22;7323;50.848;4.334;2024-01-16T05:21:08;1.10;4.10
14475;DHT22;7323;50.848;4.334;2024-01-16T05:23:34;1.20;1.00
14475;DHT22;7323;50.848;4.334;2024-01-16T05:25:59;1.10;1.00
14475;DHT22;7323;50.848;4.334;2024-01-16T05:28:25;1.20;1.00
14475;DHT22;7323;50.848;4.334;2024-01-16T05:30:51;1.30;1.00
14475;DHT22;7323;50.848;4.334;2024-01-16T05:33:16;1.10;1.00
14475;DHT22;7323;50.848;4.334;2024-01-16T05:35:42;0.90;1.00
14475;DHT22;7323;50.848;4.334;2024-01-16T05:38:08;0.80;1.00
14475;DHT22;7323;50.848;4.334;2024-01-16T05:40:33;0.80;1.00
14475;DHT22;7323;50.848;4.334;2024-01-16T05:42:59;0.90;1.00
14475;DHT22;7323;50.848;4.334;2024-01-16T05:45:24;0.90;1.00
14475;DHT22;7323;50.848;4.334;2024-01-16T05:47:50;0.70;1.00
14475;DHT22;7323;50.848;4.334;2024-01-16T05:50:16;0.60;1.00
14475;DHT22;7323;50.848;4.334;2024-01-16T05:52:44;0.50;2.40
14475;DHT22;7323;50.848;4.334;2024-01-16T05:55:10;0.70;4.50
14475;DHT22;7323;50.848;4.334;2024-01-16T05:57:36;0.80;1.00
14475;DHT22;7323;50.848;4.334;2024-01-16T06:00:03;0.70;1.00
14475;DHT22;7323;50.848;4.334;2024-01-16T06:02:31;0.50;1.00
14475;DHT22;7323;50.848;4.334;2024-01-16T06:04:56;0.40;3.60
14475;DHT22;7323;50.848;4.334;2024-01-16T06:07:22;0.40;4.70
14475;DHT22;7323;50.848;4.334;2024-01-16T06:09:47;0.30;9.00
14475;DHT22;7323;50.848;4.334;2024-01-16T06:12:13;0.40;10.10
14475;DHT22;7323;50.848;4.334;2024-01-16T06:14:39;0.60;8.50
14475;DHT22;7323;50.848;4.334;2024-01-16T06:17:04;0.60;4.30
14475;DHT22;7323;50.848;4.334;2024-01-16T06:19:33;0.50;6.00
14475;DHT22;7323;50.848;4.334;2024-01-16T06:21:59;0.60;3.80
14475;DHT22;7323;50.848;4.334;2024-01-16T06:24:25;0.50;1.10
14475;DHT22;7323;50.848;4.334;2024-01-16T06:26:51;0.40;4.50
14475;DHT22;7323;50.848;4.334;2024-01-16T06:29:17;0.40;6.40
14475;DHT22;7323;50.848;4.334;2024-01-16T06:31:43;0.30;8.10
14475;DHT22;7323;50.848;4.334;2024-01-16T06:34:08;0.30;12.40
14475;DHT22;7323;50.848;4.334;2024-01-16T06:36:34;0.30;11.80
14475;DHT22;7323;50.848;4.334;2024-01-16T06:39:00;0.30;11.10
14475;DHT22;7323;50.848;4.334;2024-01-16T06:41:25;0.30;13.30
14475;DHT22;7323;50.848;4.334;2024-01-16T06:43:51;0.40;13.50
14475;DHT22;7323;50.848;4.334;2024-01-16T06:46:17;0.50;14.10
14475;DHT22;7323;50.848;4.334;2024-01-16T06:48:42;0.50;7.60
14475;DHT22;7323;50.848;4.334;2024-01-16T06:51:08;0.40;6.70
14475;DHT22;7323;50.848;4.334;2024-01-16T06:53:36;0.40;8.20
14475;DHT22;7323;50.848;4.334;2024-01-16T06:56:01;0.50;10.40
14475;DHT22;7323;50.848;4.334;2024-01-16T06:58:28;0.60;8.90
14475;DHT22;7323;50.848;4.334;2024-01-16T07:00:54;0.50;1.00
14475;DHT22;7323;50.848;4.334;2024-01-16T07:03:20;0.40;4.00
14475;DHT22;7323;50.848;4.334;2024-01-16T07:05:46;0.40;6.50
14475;DHT22;7323;50.848;4.334;2024-01-16T07:08:12;0.40;5.70
14475;DHT22;7323;50.848;4.334;2024-01-16T07:10:37;0.30;8.10
14475;DHT22;7323;50.848;4.334;2024-01-16T07:13:04;0.20;11.40
14475;DHT22;7323;50.848;4.334;2024-01-16T07:15:31;0.20;12.30
14475;DHT22;7323;50.848;4.334;2024-01-16T07:17:58;0.20;14.70
14475;DHT22;7323;50.848;4.334;2024-01-16T07:20:23;0.30;16.50
14475;DHT22;7323;50.848;4.334;2024-01-16T07:22:49;0.40;15.30
14475;DHT22;7323;50.848;4.334;2024-01-16T07:25:14;0.40;13.60
14475;DHT22;7323;50.848;4.334;2024-01-16T07:27:40;0.50;10.90
14475;DHT22;7323;50.848;4.334;2024-01-16T07:30:08;0.50;9.20
14475;DHT22;7323;50.848;4.334;2024-01-16T07:32:34;0.40;9.10
14475;DHT22;7323;50.848;4.334;2024-01-16T07:34:59;0.40;10.90
14475;DHT22;7323;50.848;4.334;2024-01-16T07:37:25;0.40;13.20
14475;DHT22;7323;50.848;4.334;2024-01-16T07:39:51;0.40;8.40
14475;DHT22;7323;50.848;4.334;2024-01-16T07:42:16;0.50;9.20
14475;DHT22;7323;50.848;4.334;2024-01-16T07:44:42;0.50;8.40
14475;DHT22;7323;50.848;4.334;2024-01-16T07:47:08;0.40;6.00
14475;DHT22;7323;50.848;4.334;2024-01-16T07:49:34;0.40;8.80
14475;DHT22;7323;50.848;4.334;2024-01-16T07:52:00;0.70;10.50
14475;DHT22;7323;50.848;4.334;2024-01-16T07:54:25;0.60;6.90
14475;DHT22;7323;50.848;4.334;2024-01-16T07:56:51;0.50;3.70
14475;DHT22;7323;50.848;4.334;2024-01-16T07:59:17;0.50;1.50
14475;DHT22;7323;50.848;4.334;2024-01-16T08:01:43;0.50;2.40
14475;DHT22;7323;50.848;4.334;2024-01-16T08:04:09;0.40;5.20
14475;DHT22;7323;50.848;4.334;2024-01-16T08:06:35;0.40;3.00
14475;DHT22;7323;50.848;4.334;2024-01-16T08:09:00;0.50;2.20
14475;DHT22;7323;50.848;4.334;2024-01-16T08:11:26;0.40;2.00
14475;DHT22;7323;50.848;4.334;2024-01-16T08:13:52;0.50;3.40
14475;DHT22;7323;50.848;4.334;2024-01-16T08:16:17;0.60;4.20
14475;DHT22;7323;50.848;4.334;2024-01-16T08:18:43;0.50;1.20
14475;DHT22;7323;50.848;4.334;2024-01-16T08:21:08;0.70;1.00
14475;DHT22;7323;50.848;4.334;2024-01-16T08:23:34;0.80;1.00
14475;DHT22;7323;50.848;4.334;2024-01-16T08:26:00;0.90;1.00
14475;DHT22;7323;50.848;4.334;2024-01-16T08:28:26;0.70;1.00
14475;DHT22;7323;50.848;4.334;2024-01-16T08:30:52;0.80;1.00
14475;DHT22;7323;50.848;4.334;2024-01-16T08:33:17;0.80;1.00
14475;DHT22;7323;50.848;4.334;2024-01-16T08:35:43;0.80;1.00
14475;DHT22;7323;50.848;4.334;2024-01-16T08:38:09;0.80;1.00
14475;DHT22;7323;50.848;4.334;2024-01-16T08:40:35;0.80;1.00
14475;DHT22;7323;50.848;4.334;2024-01-16T08:43:01;0.80;1.00
14475;DHT22;7323;50.848;4.334;2024-01-16T08:45:26;0.80;1.00
14475;DHT22;7323;50.848;4.334;2024-01-16T08:47:52;0.90;1.00
14475;DHT22;7323;50.848;4.334;2024-01-16T08:50:18;0.80;1.00
14475;DHT22;7323;50.848;4.334;2024-01-16T08:52:44;0.80;1.00
14475;DHT22;7323;50.848;4.334;2024-01-16T08:55:09;0.70;1.00
14475;DHT22;7323;50.848;4.334;2024-01-16T08:57:37;0.70;1.00
14475;DHT22;7323;50.848;4.334;2024-01-16T09:00:06;0.80;1.00
14475;DHT22;7323;50.848;4.334;2024-01-16T09:02:31;0.90;1.00
14475;DHT22;7323;50.848;4.334;2024-01-16T09:04:58;1.00;1.00
14475;DHT22;7323;50.848;4.334;2024-01-16T09:07:27;0.90;1.00
14475;DHT22;7323;50.848;4.334;2024-01-16T09:09:53;0.90;1.00
14475;DHT22;7323;50.848;4.334;2024-01-16T09:12:19;1.00;1.00
14475;DHT22;7323;50.848;4.334;2024-01-16T09:14:45;1.00;1.00
14475;DHT22;7323;50.848;4.334;2024-01-16T09:17:10;1.00;1.00
14475;DHT22;7323;50.848;4.334;2024-01-16T09:19:36;1.10;1.00
14475;DHT22;7323;50.848;4.334;2024-01-16T09:22:02;1.10;1.00
14475;DHT22;7323;50.848;4.334;2024-01-16T09:24:29;1.10;1.00
14475;DHT22;7323;50.848;4.334;2024-01-16T09:26:54;1.10;1.00
14475;DHT22;7323;50.848;4.334;2024-01-16T09:29:20;1.00;1.00
14475;DHT22;7323;50.848;4.334;2024-01-16T09:31:48;1.00;1.00
14475;DHT22;7323;50.848;4.334;2024-01-16T09:34:14;1.20;1.00
14475;DHT22;7323;50.848;4.334;2024-01-16T09:36:40;1.30;1.00
14475;DHT22;7323;50.848;4.334;2024-01-16T09:39:06;1.20;1.00
14475;DHT22;7323;50.848;4.334;2024-01-16T09:41:39;1.20;1.00
14475;DHT22;7323;50.848;4.334;2024-01-16T09:44:06;1.40;1.00
14475;DHT22;7323;50.848;4.334;2024-01-16T09:46:34;1.40;1.00
14475;DHT22;7323;50.848;4.334;2024-01-16T09:49:00;1.20;1.00
14475;DHT22;7323;50.848;4.334;2024-01-16T09:51:28;1.10;1.00
14475;DHT22;7323;50.848;4.334;2024-01-16T09:53:54;1.10;1.00
14475;DHT22;7323;50.848;4.334;2024-01-16T09:56:22;1.20;1.00
14475;DHT22;7323;50.848;4.334;2024-01-16T09:58:54;1.50;1.00
14475;DHT22;7323;50.848;4.334;2024-01-16T10:01:23;1.50;1.00
14475;DHT22;7323;50.848;4.334;2024-01-16T10:03:52;1.50;1.00
14475;DHT22;7323;50.848;4.334;2024-01-16T10:06:20;1.80;1.00
14475;DHT22;7323;50.848;4.334;2024-01-16T10:08:46;2.00;1.00
14475;DHT22;7323;50.848;4.334;2024-01-16T10:11:12;2.00;1.00
14475;DHT22;7323;50.848;4.334;2024-01-16T10:13:38;2.10;1.00
14475;DHT22;7323;50.848;4.334;2024-01-16T10:16:04;2.10;1.00
14475;DHT22;7323;50.848;4.334;2024-01-16T10:18:30;2.10;1.00
14475;DHT22;7323;50.848;4.334;2024-01-16T10:20:56;2.10;1.00
14475;DHT22;7323;50.848;4.334;2024-01-16T10:23:32;2.00;1.00
14475;DHT22;7323;50.848;4.334;2024-01-16T10:26:12;2.10;1.00
14475;DHT22;7323;50.848;4.334;2024-01-16T10:28:40;2.10;1.00
14475;DHT22;7323;50.848;4.334;2024-01-16T10:31:10;2.10;1.00
14475;DHT22;7323;50.848;4.334;2024-01-16T10:33:36;2.50;1.00
14475;DHT22;7323;50.848;4.334;2024-01-16T10:36:15;2.40;1.00
14475;DHT22;7323;50.848;4.334;2024-01-16T10:38:43;2.70;1.00
14475;DHT22;7323;50.848;4.334;2024-01-16T10:41:16;2.50;1.00
14475;DHT22;7323;50.848;4.334;2024-01-16T10:44:03;2.40;1.00
14475;DHT22;7323;50.848;4.334;2024-01-16T10:46:29;2.50;1.00
14475;DHT22;7323;50.848;4.334;2024-01-16T10:49:00;2.60;1.00
14475;DHT22;7323;50.848;4.334;2024-01-16T10:51:27;2.60;1.00
14475;DHT22;7323;50.848;4.334;2024-01-16T10:54:02;2.70;1.00
14475;DHT22;7323;50.848;4.334;2024-01-16T10:56:29;2.60;1.00
14475;DHT22;7323;50.848;4.334;2024-01-16T10:59:12;2.50;1.00
14475;DHT22;7323;50.848;4.334;2024-01-16T11:01:43;2.40;1.00
14475;DHT22;7323;50.848;4.334;2024-01-16T11:04:09;2.40;1.00
14475;DHT22;7323;50.848;4.334;2024-01-16T11:06:36;2.70;1.00
14475;DHT22;7323;50.848;4.334;2024-01-16T11:09:02;2.70;1.00
14475;DHT22;7323;50.848;4.334;2024-01-16T11:11:28;2.80;1.00
14475;DHT22;7323;50.848;4.334;2024-01-16T11:13:56;3.00;1.00
14475;DHT22;7323;50.848;4.334;2024-01-16T11:16:23;3.00;1.00
14475;DHT22;7323;50.848;4.334;2024-01-16T11:18:49;3.10;1.00
14475;DHT22;7323;50.848;4.334;2024-01-16T11:21:16;3.20;1.00
14475;DHT22;7323;50.848;4.334;2024-01-16T11:23:42;3.10;1.00
14475;DHT22;7323;50.848;4.334;2024-01-16T11:26:26;3.20;1.00
14475;DHT22;7323;50.848;4.334;2024-01-16T11:28:53;3.40;1.00
14475;DHT22;7323;50.848;4.334;2024-01-16T11:31:35;3.40;1.00
14475;DHT22;7323;50.848;4.334;2024-01-16T11:34:02;3.50;1.00
14475;DHT22;7323;50.848;4.334;2024-01-16T11:36:50;3.50;1.00
14475;DHT22;7323;50.848;4.334;2024-01-16T11:39:24;3.40;1.00
14475;DHT22;7323;50.848;4.334;2024-01-16T11:41:54;3.60;1.00
14475;DHT22;7323;50.848;4.334;2024-01-16T11:47:05;3.50;1.00
14475;DHT22;7323;50.848;4.334;2024-01-16T11:49:32;3.50;1.00
14475;DHT22;7323;50.848;4.334;2024-01-16T11:51:58;3.80;1.00
14475;DHT22;7323;50.848;4.334;2024-01-16T11:54:24;3.70;1.00
14475;DHT22;7323;50.848;4.334;2024-01-16T11:59:57;3.80;1.00
14475;DHT22;7323;50.848;4.334;2024-01-16T12:02:53;4.00;1.00
14475;DHT22;7323;50.848;4.334;2024-01-16T12:05:21;3.80;1.00
14475;DHT22;7323;50.848;4.334;2024-01-16T12:07:51;3.80;1.00
14475;DHT22;7323;50.848;4.334;2024-01-16T12:10:19;3.60;1.00
14475;DHT22;7323;50.848;4.334;2024-01-16T12:12:47;3.80;1.00
14475;DHT22;7323;50.848;4.334;2024-01-16T12:15:14;3.90;1.00
14475;DHT22;7323;50.848;4.334;2024-01-16T12:18:01;4.00;1.00
14475;DHT22;7323;50.848;4.334;2024-01-16T12:20:33;4.10;1.00
14475;DHT22;7323;50.848;4.334;2024-01-16T12:23:03;4.10;1.00
14475;DHT22;7323;50.848;4.334;2024-01-16T12:25:30;4.00;1.00
14475;DHT22;7323;50.848;4.334;2024-01-16T12:30:30;4.00;1.00
14475;DHT22;7323;50.848;4.334;2024-01-16T12:33:10;4.00;1.00
14475;DHT22;7323;50.848;4.334;2024-01-16T12:35:37;4.20;1.00
14475;DHT22;7323;50.848;4.334;2024-01-16T12:38:04;4.20;1.00
14475;DHT22;7323;50.848;4.334;2024-01-16T12:40:32;4.10;1.00
14475;DHT22;7323;50.848;4.334;2024-01-16T12:42:58;4.20;1.00
14475;DHT22;7323;50.848;4.334;2024-01-16T12:45:24;3.90;1.00
14475;DHT22;7323;50.848;4.334;2024-01-16T12:47:53;3.80;1.00
14475;DHT22;7323;50.848;4.334;2024-01-16T12:50:20;3.60;1.00
14475;DHT22;7323;50.848;4.334;2024-01-16T12:52:46;3.70;1.00
14475;DHT22;7323;50.848;4.334;2024-01-16T12:55:13;3.70;1.00
14475;DHT22;7323;50.848;4.334;2024-01-16T12:57:39;3.80;1.00
14475;DHT22;7323;50.848;4.334;2024-01-16T13:00:22;3.90;1.00
14475;DHT22;7323;50.848;4.334;2024-01-16T13:02:54;4.00;1.00
14475;DHT22;7323;50.848;4.334;2024-01-16T13:05:23;4.10;1.00
14475;DHT22;7323;50.848;4.334;2024-01-16T13:08:00;4.10;1.00
14475;DHT22;7323;50.848;4.334;2024-01-16T13:10:28;4.20;1.00
14475;DHT22;7323;50.848;4.334;2024-01-16T13:13:12;4.10;1.00
14475;DHT22;7323;50.848;4.334;2024-01-16T13:15:39;4.00;1.00
14475;DHT22;7323;50.848;4.334;2024-01-16T13:18:05;4.00;1.00
14475;DHT22;7323;50.848;4.334;2024-01-16T13:20:31;4.00;1.00
14475;DHT22;7323;50.848;4.334;2024-01-16T13:22:57;4.00;1.00
14475;DHT22;7323;50.848;4.334;2024-01-16T13:25:22;4.00;1.00
14475;DHT22;7323;50.848;4.334;2024-01-16T13:27:48;4.00;1.00
14475;DHT22;7323;50.848;4.334;2024-01-16T13:30:14;4.10;1.00
14475;DHT22;7323;50.848;4.334;2024-01-16T13:32:40;4.00;1.00
14475;DHT22;7323;50.848;4.334;2024-01-16T13:35:06;4.00;1.00
14475;DHT22;7323;50.848;4.334;2024-01-16T13:37:34;4.00;1.00
14475;DHT22;7323;50.848;4.334;2024-01-16T13:40:06;4.00;1.00
14475;DHT22;7323;50.848;4.334;2024-01-16T13:42:38;4.00;1.00
14475;DHT22;7323;50.848;4.334;2024-01-16T13:45:04;4.40;1.00
14475;DHT22;7323;50.848;4.334;2024-01-16T13:47:30;4.30;1.00
14475;DHT22;7323;50.848;4.334;2024-01-16T13:49:55;4.40;1.00
14475;DHT22;7323;50.848;4.334;2024-01-16T13:52:21;4.50;1.00
14475;DHT22;7323;50.848;4.334;2024-01-16T13:54:47;4.30;1.00
14475;DHT22;7323;50.848;4.334;2024-01-16T13:57:12;4.40;1.00
14475;DHT22;7323;50.848;4.334;2024-01-16T13:59:38;4.50;1.00
14475;DHT22;7323;50.848;4.334;2024-01-16T14:02:04;4.50;99.90
14475;DHT22;7323;50.848;4.334;2024-01-16T14:04:33;4.50;99.90
14475;DHT22;7323;50.848;4.334;2024-01-16T14:06:59;4.60;99.90
14475;DHT22;7323;50.848;4.334;2024-01-16T14:09:27;4.40;99.90
14475;DHT22;7323;50.848;4.334;2024-01-16T14:11:52;4.30;99.90
14475;DHT22;7323;50.848;4.334;2024-01-16T14:14:18;4.30;99.90
14475;DHT22;7323;50.848;4.334;2024-01-16T14:16:44;4.60;99.90
14475;DHT22;7323;50.848;4.334;2024-01-16T14:19:10;4.60;99.90
14475;DHT22;7323;50.848;4.334;2024-01-16T14:21:35;4.60;99.90
14475;DHT22;7323;50.848;4.334;2024-01-16T14:24:01;4.70;99.90
14475;DHT22;7323;50.848;4.334;2024-01-16T14:26:27;4.60;99.90
14475;DHT22;7323;50.848;4.334;2024-01-16T14:28:53;4.50;99.90
14475;DHT22;7323;50.848;4.334;2024-01-16T14:31:18;4.30;99.90
14475;DHT22;7323;50.848;4.334;2024-01-16T14:33:44;4.40;99.90
14475;DHT22;7323;50.848;4.334;2024-01-16T14:36:09;4.30;99.90
14475;DHT22;7323;50.848;4.334;2024-01-16T14:38:35;4.40;99.90
14475;DHT22;7323;50.848;4.334;2024-01-16T14:41:01;4.40;99.90
14475;DHT22;7323;50.848;4.334;2024-01-16T14:43:26;4.40;99.90
14475;DHT22;7323;50.848;4.334;2024-01-16T14:45:52;4.60;99.90
14475;DHT22;7323;50.848;4.334;2024-01-16T14:48:18;4.60;99.90
14475;DHT22;7323;50.848;4.334;2024-01-16T14:50:43;4.60;99.90
14475;DHT22;7323;50.848;4.334;2024-01-16T14:53:09;4.50;99.90
14475;DHT22;7323;50.848;4.334;2024-01-16T14:55:35;4.60;99.90
14475;DHT22;7323;50.848;4.334;2024-01-16T14:58:03;4.60;99.90
14475;DHT22;7323;50.848;4.334;2024-01-16T15:00:29;4.60;99.90
14475;DHT22;7323;50.848;4.334;2024-01-16T15:02:56;4.70;99.90
14475;DHT22;7323;50.848;4.334;2024-01-16T15:05:25;4.60;99.90
14475;DHT22;7323;50.848;4.334;2024-01-16T15:07:51;4.50;99.90
14475;DHT22;7323;50.848;4.334;2024-01-16T15:10:20;4.40;99.90
14475;DHT22;7323;50.848;4.334;2024-01-16T15:12:47;4.40;99.90
14475;DHT22;7323;50.848;4.334;2024-01-16T15:15:14;4.40;99.90
14475;DHT22;7323;50.848;4.334;2024-01-16T15:17:41;4.50;99.90
14475;DHT22;7323;50.848;4.334;2024-01-16T15:20:08;4.50;99.90
14475;DHT22;7323;50.848;4.334;2024-01-16T15:22:41;4.50;99.90
14475;DHT22;7323;50.848;4.334;2024-01-16T15:25:08;4.60;99.90
14475;DHT22;7323;50.848;4.334;2024-01-16T15:27:34;4.70;99.90
14475;DHT22;7323;50.848;4.334;2024-01-16T15:30:01;5.00;99.90
14475;DHT22;7323;50.848;4.334;2024-01-16T15:32:27;5.00;99.90
14475;DHT22;7323;50.848;4.334;2024-01-16T15:34:52;5.00;99.90
14475;DHT22;7323;50.848;4.334;2024-01-16T15:37:18;4.80;99.90
14475;DHT22;7323;50.848;4.334;2024-01-16T15:39:44;4.90;99.90
14475;DHT22;7323;50.848;4.334;2024-01-16T15:42:11;4.80;99.90
14475;DHT22;7323;50.848;4.334;2024-01-16T15:44:37;4.70;99.90
14475;DHT22;7323;50.848;4.334;2024-01-16T15:47:03;4.40;99.90
14475;DHT22;7323;50.848;4.334;2024-01-16T15:49:30;4.30;99.90
14475;DHT22;7323;50.848;4.334;2024-01-16T15:51:57;4.30;99.90
14475;DHT22;7323;50.848;4.334;2024-01-16T15:54:25;4.30;99.90
14475;DHT22;7323;50.848;4.334;2024-01-16T15:56:52;4.40;99.90
14475;DHT22;7323;50.848;4.334;2024-01-16T15:59:18;4.40;99.90
14475;DHT22;7323;50.848;4.334;2024-01-16T16:01:43;4.10;99.90
14475;DHT22;7323;50.848;4.334;2024-01-16T16:04:09;4.10;1.00
14475;DHT22;7323;50.848;4.334;2024-01-16T16:06:37;3.70;1.00
14475;DHT22;7323;50.848;4.334;2024-01-16T16:09:04;3.70;1.00
14475;DHT22;7323;50.848;4.334;2024-01-16T16:11:40;3.90;1.00
14475;DHT22;7323;50.848;4.334;2024-01-16T16:14:13;3.60;1.00
14475;DHT22;7323;50.848;4.334;2024-01-16T16:16:41;3.60;1.00
14475;DHT22;7323;50.848;4.334;2024-01-16T16:19:07;3.50;1.00